sensor_id;sensor_type;location;lat;lon;timestamp;noise_LAeq;noise_LA_min;noise_LA_max;noise_LA01;noise_LA95
60503;Laerm;51448;51.660;5.824;2023-03-14T00:01:18;51.37;38.18;57.60;;
60503;Laerm;51448;51.660;5.824;2023-03-14T00:03:46;56.65;38.72;65.13;;
60503;Laerm;51448;51.660;5.824;2023-03-14T00:06:14;61.16;51.64;69.01;;
60503;Laerm;51448;51.660;5.824;2023-03-14T00:08:44;57.00;37.40;66.94;;
60503;Laerm;51448;51.660;5.824;2023-03-14T00:11:18;45.61;31.33;57.13;;
60503;Laerm;51448;51.660;5.824;2023-03-14T00:13:51;46.33;29.80;60.31;;
60503;Laerm;51448;51.660;5.824;2023-03-14T00:16:21;45.27;30.05;56.35;;
60503;Laerm;51448;51.660;5.824;2023-03-14T00:18:49;45.16;29.06;56.57;;
60503;Laerm;51448;51.660;5.824;2023-03-14T00:21:19;44.93;29.36;56.67;;
60503;Laerm;51448;51.660;5.824;2023-03-14T00:23:46;45.57;28.56;56.67;;
60503;Laerm;51448;51.660;5.824;2023-03-14T00:26:18;45.03;28.71;56.52;;
60503;Laerm;51448;51.660;5.824;2023-03-14T00:28:51;44.41;28.85;56.31;;
60503;Laerm;51448;51.660;5.824;2023-03-14T00:31:19;44.71;28.57;56.19;;
60503;Laerm;51448;51.660;5.824;2023-03-14T00:33:47;44.60;28.64;56.14;;
60503;Laerm;51448;51.660;5.824;2023-03-14T00:36:17;45.56;29.08;56.40;;
60503;Laerm;51448;51.660;5.824;2023-03-14T00:38:47;45.71;28.60;56.77;;
60503;Laerm;51448;51.660;5.824;2023-03-14T00:41:18;44.69;28.54;56.10;;
60503;Laerm;51448;51.660;5.824;2023-03-14T00:43:47;45.02;28.96;56.43;;
60503;Laerm;51448;51.660;5.824;2023-03-14T00:46:15;45.51;29.77;56.87;;
60503;Laerm;51448;51.660;5.824;2023-03-14T00:48:47;44.97;29.40;56.30;;
60503;Laerm;51448;51.660;5.824;2023-03-14T00:51:15;45.65;30.80;57.38;;
60503;Laerm;51448;51.660;5.824;2023-03-14T00:53:44;45.94;31.96;57.04;;
60503;Laerm;51448;51.660;5.824;2023-03-14T00:56:12;47.41;33.59;64.09;;
60503;Laerm;51448;51.660;5.824;2023-03-14T00:58:40;50.50;35.87;67.45;;
60503;Laerm;51448;51.660;5.824;2023-03-14T01:01:17;47.68;34.18;69.80;;
60503;Laerm;51448;51.660;5.824;2023-03-14T01:03:46;46.51;32.83;62.73;;
60503;Laerm;51448;51.660;5.824;2023-03-14T01:06:23;46.17;32.64;62.85;;
60503;Laerm;51448;51.660;5.824;2023-03-14T01:08:52;46.44;34.06;62.25;;
60503;Laerm;51448;51.660;5.824;2023-03-14T01:11:28;46.67;32.42;65.75;;
60503;Laerm;51448;51.660;5.824;2023-03-14T01:13:58;47.41;32.64;62.50;;
60503;Laerm;51448;51.660;5.824;2023-03-14T01:16:32;50.39;32.81;63.68;;
60503;Laerm;51448;51.660;5.824;2023-03-14T01:19:02;53.36;33.27;75.47;;
60503;Laerm;51448;51.660;5.824;2023-03-14T01:21:34;47.46;31.53;60.87;;
60503;Laerm;51448;51.660;5.824;2023-03-14T01:24:05;44.61;29.79;56.23;;
60503;Laerm;51448;51.660;5.824;2023-03-14T01:26:35;45.00;29.98;56.66;;
60503;Laerm;51448;51.660;5.824;2023-03-14T01:29:04;44.70;30.21;56.60;;
60503;Laerm;51448;51.660;5.824;2023-03-14T01:31:35;45.43;29.97;56.56;;
60503;Laerm;51448;51.660;5.824;2023-03-14T01:34:03;45.93;31.04;57.63;;
60503;Laerm;51448;51.660;5.824;2023-03-14T01:36:31;46.50;29.95;62.58;;
60503;Laerm;51448;51.660;5.824;2023-03-14T01:39:02;45.12;30.92;56.64;;
60503;Laerm;51448;51.660;5.824;2023-03-14T01:41:30;46.44;31.46;59.26;;
60503;Laerm;51448;51.660;5.824;2023-03-14T01:43:59;45.61;30.44;56.98;;
60503;Laerm;51448;51.660;5.824;2023-03-14T01:46:42;48.28;30.79;61.42;;
60503;Laerm;51448;51.660;5.824;2023-03-14T01:49:34;45.27;29.32;60.26;;
60503;Laerm;51448;51.660;5.824;2023-03-14T01:52:18;44.34;30.09;56.88;;
60503;Laerm;51448;51.660;5.824;2023-03-14T01:54:55;45.03;32.25;56.29;;
60503;Laerm;51448;51.660;5.824;2023-03-14T01:57:39;44.94;31.39;56.43;;
60503;Laerm;51448;51.660;5.824;2023-03-14T02:00:16;46.64;31.77;63.40;;
60503;Laerm;51448;51.660;5.824;2023-03-14T02:02:55;45.79;29.64;56.12;;
60503;Laerm;51448;51.660;5.824;2023-03-14T02:05:32;45.51;29.80;61.76;;
60503;Laerm;51448;51.660;5.824;2023-03-14T02:08:11;44.39;30.25;56.14;;
60503;Laerm;51448;51.660;5.824;2023-03-14T02:10:51;44.60;30.33;60.63;;
60503;Laerm;51448;51.660;5.824;2023-03-14T02:13:31;44.62;30.22;56.79;;
60503;Laerm;51448;51.660;5.824;2023-03-14T02:16:14;45.40;30.52;63.48;;
60503;Laerm;51448;51.660;5.824;2023-03-14T02:18:53;44.67;30.74;56.09;;
60503;Laerm;51448;51.660;5.824;2023-03-14T02:21:56;45.49;31.77;59.90;;
60503;Laerm;51448;51.660;5.824;2023-03-14T02:27:21;45.55;30.63;56.65;;
60503;Laerm;51448;51.660;5.824;2023-03-14T02:29:58;45.01;30.48;57.18;;
60503;Laerm;51448;51.660;5.824;2023-03-14T02:32:30;44.81;30.43;56.85;;
60503;Laerm;51448;51.660;5.824;2023-03-14T02:35:03;33.73;29.95;47.86;;
60503;Laerm;51448;51.660;5.824;2023-03-14T02:40:23;43.91;30.61;55.80;;
60503;Laerm;51448;51.660;5.824;2023-03-14T02:42:52;46.82;31.28;63.43;;
60503;Laerm;51448;51.660;5.824;2023-03-14T02:48:00;45.51;31.08;57.26;;
60503;Laerm;51448;51.660;5.824;2023-03-14T02:50:33;46.60;31.61;68.32;;
60503;Laerm;51448;51.660;5.824;2023-03-14T02:53:02;44.84;31.04;56.13;;
60503;Laerm;51448;51.660;5.824;2023-03-14T02:55:31;44.76;29.58;56.45;;
60503;Laerm;51448;51.660;5.824;2023-03-14T02:58:05;45.12;30.32;56.66;;
60503;Laerm;51448;51.660;5.824;2023-03-14T03:00:33;45.42;30.04;56.48;;
60503;Laerm;51448;51.660;5.824;2023-03-14T03:03:03;44.95;29.60;56.52;;
60503;Laerm;51448;51.660;5.824;2023-03-14T03:05:33;44.57;29.39;56.47;;
60503;Laerm;51448;51.660;5.824;2023-03-14T03:08:02;44.82;29.55;58.28;;
60503;Laerm;51448;51.660;5.824;2023-03-14T03:10:32;47.32;29.37;62.57;;
60503;Laerm;51448;51.660;5.824;2023-03-14T03:13:00;44.82;28.60;56.26;;
60503;Laerm;51448;51.660;5.824;2023-03-14T03:15:28;46.27;29.23;58.48;;
60503;Laerm;51448;51.660;5.824;2023-03-14T03:17:57;44.60;29.71;56.79;;
60503;Laerm;51448;51.660;5.824;2023-03-14T03:20:25;45.07;30.12;57.42;;
60503;Laerm;51448;51.660;5.824;2023-03-14T03:22:52;45.44;29.19;57.04;;
60503;Laerm;51448;51.660;5.824;2023-03-14T03:25:21;44.95;29.80;56.35;;
60503;Laerm;51448;51.660;5.824;2023-03-14T03:27:50;46.05;30.03;57.36;;
60503;Laerm;51448;51.660;5.824;2023-03-14T03:30:18;46.34;29.43;61.22;;
60503;Laerm;51448;51.660;5.824;2023-03-14T03:32:47;45.02;29.63;56.64;;
60503;Laerm;51448;51.660;5.824;2023-03-14T03:35:15;45.20;29.74;56.73;;
60503;Laerm;51448;51.660;5.824;2023-03-14T03:37:43;44.91;29.66;56.58;;
60503;Laerm;51448;51.660;5.824;2023-03-14T03:40:10;44.49;28.50;56.17;;
60503;Laerm;51448;51.660;5.824;2023-03-14T03:42:38;45.58;29.20;56.85;;
60503;Laerm;51448;51.660;5.824;2023-03-14T03:45:09;45.49;29.47;57.11;;
60503;Laerm;51448;51.660;5.824;2023-03-14T03:47:43;45.34;29.66;56.52;;
60503;Laerm;51448;51.660;5.824;2023-03-14T03:50:11;45.65;30.24;56.64;;
60503;Laerm;51448;51.660;5.824;2023-03-14T03:52:39;44.98;30.07;56.86;;
60503;Laerm;51448;51.660;5.824;2023-03-14T03:55:07;44.52;29.78;56.14;;
60503;Laerm;51448;51.660;5.824;2023-03-14T03:57:35;44.85;30.63;56.50;;
60503;Laerm;51448;51.660;5.824;2023-03-14T04:00:04;45.66;29.39;58.13;;
60503;Laerm;51448;51.660;5.824;2023-03-14T04:02:40;45.72;30.18;56.65;;
60503;Laerm;51448;51.660;5.824;2023-03-14T04:05:11;44.72;30.54;56.68;;
60503;Laerm;51448;51.660;5.824;2023-03-14T04:07:45;46.41;30.53;61.57;;
60503;Laerm;51448;51.660;5.824;2023-03-14T04:10:17;45.84;30.82;58.94;;
60503;Laerm;51448;51.660;5.824;2023-03-14T04:12:58;46.98;30.28;62.42;;
60503;Laerm;51448;51.660;5.824;2023-03-14T04:15:29;46.18;30.20;60.10;;
60503;Laerm;51448;51.660;5.824;2023-03-14T04:17:59;44.80;29.91;56.21;;
60503;Laerm;51448;51.660;5.824;2023-03-14T04:20:27;46.11;31.58;58.25;;
60503;Laerm;51448;51.660;5.824;2023-03-14T04:22:55;45.60;31.02;56.56;;
60503;Laerm;51448;51.660;5.824;2023-03-14T04:25:23;45.37;31.48;56.31;;
60503;Laerm;51448;51.660;5.824;2023-03-14T04:27:55;38.12;32.79;54.85;;
60503;Laerm;51448;51.660;5.824;2023-03-14T04:30:27;44.26;31.34;55.40;;
60503;Laerm;51448;51.660;5.824;2023-03-14T04:33:10;48.01;32.78;64.44;;
60503;Laerm;51448;51.660;5.824;2023-03-14T04:35:45;46.80;31.34;57.40;;
60503;Laerm;51448;51.660;5.824;2023-03-14T04:38:16;44.50;31.81;56.07;;
60503;Laerm;51448;51.660;5.824;2023-03-14T04:40:45;44.70;31.36;56.23;;
60503;Laerm;51448;51.660;5.824;2023-03-14T04:43:15;45.26;31.74;56.99;;
60503;Laerm;51448;51.660;5.824;2023-03-14T04:45:50;44.82;32.22;56.23;;
60503;Laerm;51448;51.660;5.824;2023-03-14T04:48:18;49.67;34.89;65.49;;
60503;Laerm;51448;51.660;5.824;2023-03-14T04:50:48;45.19;31.48;58.94;;
60503;Laerm;51448;51.660;5.824;2023-03-14T04:53:17;47.51;32.90;63.59;;
60503;Laerm;51448;51.660;5.824;2023-03-14T04:55:52;47.74;33.24;66.56;;
60503;Laerm;51448;51.660;5.824;2023-03-14T04:58:23;46.68;33.07;58.11;;
60503;Laerm;51448;51.660;5.824;2023-03-14T05:00:52;48.23;33.35;59.90;;
60503;Laerm;51448;51.660;5.824;2023-03-14T05:03:43;46.18;34.44;66.90;;
60503;Laerm;51448;51.660;5.824;2023-03-14T05:06:19;47.17;34.86;56.90;;
60503;Laerm;51448;51.660;5.824;2023-03-14T05:09:09;48.56;35.36;63.58;;
60503;Laerm;51448;51.660;5.824;2023-03-14T05:11:37;48.72;34.84;59.88;;
60503;Laerm;51448;51.660;5.824;2023-03-14T05:14:18;48.95;36.52;57.84;;
60503;Laerm;51448;51.660;5.824;2023-03-14T05:17:18;49.95;36.34;62.79;;
60503;Laerm;51448;51.660;5.824;2023-03-14T05:19:48;56.90;36.94;76.84;;
60503;Laerm;51448;51.660;5.824;2023-03-14T05:22:33;59.73;37.84;79.81;;
60503;Laerm;51448;51.660;5.824;2023-03-14T05:25:10;55.27;34.42;76.70;;
60503;Laerm;51448;51.660;5.824;2023-03-14T05:27:54;57.34;37.17;79.21;;
60503;Laerm;51448;51.660;5.824;2023-03-14T05:30:38;48.95;39.34;60.99;;
60503;Laerm;51448;51.660;5.824;2023-03-14T05:33:06;49.02;35.80;59.72;;
60503;Laerm;51448;51.660;5.824;2023-03-14T05:35:43;49.71;36.26;68.79;;
60503;Laerm;51448;51.660;5.824;2023-03-14T05:38:29;53.77;37.38;67.01;;
60503;Laerm;51448;51.660;5.824;2023-03-14T05:41:07;50.07;37.13;64.53;;
60503;Laerm;51448;51.660;5.824;2023-03-14T05:44:01;51.94;36.85;72.82;;
60503;Laerm;51448;51.660;5.824;2023-03-14T05:46:42;49.92;37.25;61.54;;
60503;Laerm;51448;51.660;5.824;2023-03-14T05:49:29;64.09;37.16;94.10;;
60503;Laerm;51448;51.660;5.824;2023-03-14T05:52:12;50.99;37.41;65.77;;
60503;Laerm;51448;51.660;5.824;2023-03-14T05:54:52;50.61;37.40;63.80;;
60503;Laerm;51448;51.660;5.824;2023-03-14T05:57:40;55.67;38.96;75.51;;
60503;Laerm;51448;51.660;5.824;2023-03-14T06:00:17;61.82;39.07;89.03;;
60503;Laerm;51448;51.660;5.824;2023-03-14T06:02:55;52.32;38.90;63.10;;
60503;Laerm;51448;51.660;5.824;2023-03-14T06:05:29;57.07;39.59;80.69;;
60503;Laerm;51448;51.660;5.824;2023-03-14T06:08:00;53.58;39.56;65.92;;
60503;Laerm;51448;51.660;5.824;2023-03-14T06:10:30;54.92;39.89;66.12;;
60503;Laerm;51448;51.660;5.824;2023-03-14T06:12:58;54.59;37.51;71.38;;
60503;Laerm;51448;51.660;5.824;2023-03-14T06:15:26;50.37;37.85;66.73;;
60503;Laerm;51448;51.660;5.824;2023-03-14T06:17:56;54.98;38.93;74.31;;
60503;Laerm;51448;51.660;5.824;2023-03-14T06:20:24;55.02;38.06;73.13;;
60503;Laerm;51448;51.660;5.824;2023-03-14T06:22:52;56.83;38.88;83.30;;
60503;Laerm;51448;51.660;5.824;2023-03-14T06:25:20;53.54;37.94;82.12;;
60503;Laerm;51448;51.660;5.824;2023-03-14T06:27:48;50.99;38.28;66.81;;
60503;Laerm;51448;51.660;5.824;2023-03-14T06:30:16;52.88;39.55;64.41;;
60503;Laerm;51448;51.660;5.824;2023-03-14T06:32:44;51.57;40.05;62.63;;
60503;Laerm;51448;51.660;5.824;2023-03-14T06:35:14;52.45;38.69;69.82;;
60503;Laerm;51448;51.660;5.824;2023-03-14T06:37:44;52.25;40.02;63.73;;
60503;Laerm;51448;51.660;5.824;2023-03-14T06:40:13;49.36;38.57;58.61;;
60503;Laerm;51448;51.660;5.824;2023-03-14T06:42:55;52.50;38.61;65.56;;
60503;Laerm;51448;51.660;5.824;2023-03-14T06:45:24;59.13;36.97;84.48;;
60503;Laerm;51448;51.660;5.824;2023-03-14T06:47:53;53.38;40.10;66.94;;
60503;Laerm;51448;51.660;5.824;2023-03-14T06:50:25;54.08;39.44;67.14;;
60503;Laerm;51448;51.660;5.824;2023-03-14T06:52:52;55.09;39.23;68.99;;
60503;Laerm;51448;51.660;5.824;2023-03-14T06:55:24;52.44;38.33;68.78;;
60503;Laerm;51448;51.660;5.824;2023-03-14T06:57:53;56.77;40.61;82.70;;
60503;Laerm;51448;51.660;5.824;2023-03-14T07:00:22;56.53;38.59;83.99;;
60503;Laerm;51448;51.660;5.824;2023-03-14T07:02:53;65.65;38.28;90.49;;
60503;Laerm;51448;51.660;5.824;2023-03-14T07:05:29;55.90;40.22;72.13;;
60503;Laerm;51448;51.660;5.824;2023-03-14T07:07:57;54.37;39.94;70.97;;
60503;Laerm;51448;51.660;5.824;2023-03-14T07:10:25;55.94;39.36;75.04;;
60503;Laerm;51448;51.660;5.824;2023-03-14T07:12:52;55.69;39.59;82.74;;
60503;Laerm;51448;51.660;5.824;2023-03-14T07:15:23;50.73;39.54;68.81;;
60503;Laerm;51448;51.660;5.824;2023-03-14T07:17:57;54.03;39.83;73.75;;
60503;Laerm;51448;51.660;5.824;2023-03-14T07:20:26;56.86;41.10;78.50;;
60503;Laerm;51448;51.660;5.824;2023-03-14T07:22:54;59.04;39.55;87.59;;
60503;Laerm;51448;51.660;5.824;2023-03-14T07:25:37;62.57;39.75;92.60;;
60503;Laerm;51448;51.660;5.824;2023-03-14T07:28:05;53.62;40.75;77.99;;
60503;Laerm;51448;51.660;5.824;2023-03-14T07:30:33;55.19;46.12;76.66;;
60503;Laerm;51448;51.660;5.824;2023-03-14T07:33:03;54.57;45.44;68.67;;
60503;Laerm;51448;51.660;5.824;2023-03-14T07:35:31;59.42;42.83;84.28;;
60503;Laerm;51448;51.660;5.824;2023-03-14T07:37:58;55.90;48.45;73.56;;
60503;Laerm;51448;51.660;5.824;2023-03-14T07:40:33;59.81;50.16;70.42;;
60503;Laerm;51448;51.660;5.824;2023-03-14T07:43:03;59.83;49.81;77.18;;
60503;Laerm;51448;51.660;5.824;2023-03-14T07:45:50;64.01;49.12;76.14;;
60503;Laerm;51448;51.660;5.824;2023-03-14T07:48:26;62.67;52.42;84.91;;
60503;Laerm;51448;51.660;5.824;2023-03-14T07:50:55;60.27;48.16;78.94;;
60503;Laerm;51448;51.660;5.824;2023-03-14T07:53:24;63.85;46.79;90.97;;
60503;Laerm;51448;51.660;5.824;2023-03-14T07:55:53;54.91;44.17;69.23;;
60503;Laerm;51448;51.660;5.824;2023-03-14T07:58:21;55.72;42.18;71.48;;
60503;Laerm;51448;51.660;5.824;2023-03-14T08:00:50;51.11;43.06;70.52;;
60503;Laerm;51448;51.660;5.824;2023-03-14T08:03:18;53.58;41.79;69.59;;
60503;Laerm;51448;51.660;5.824;2023-03-14T08:05:50;55.87;43.58;75.82;;
60503;Laerm;51448;51.660;5.824;2023-03-14T08:08:18;52.72;43.83;76.75;;
60503;Laerm;51448;51.660;5.824;2023-03-14T08:10:46;60.09;48.65;77.06;;
60503;Laerm;51448;51.660;5.824;2023-03-14T08:13:13;63.31;56.71;87.04;;
60503;Laerm;51448;51.660;5.824;2023-03-14T08:15:41;59.52;47.53;76.18;;
60503;Laerm;51448;51.660;5.824;2023-03-14T08:18:09;53.76;45.07;64.53;;
60503;Laerm;51448;51.660;5.824;2023-03-14T08:20:36;56.03;41.50;75.10;;
60503;Laerm;51448;51.660;5.824;2023-03-14T08:23:04;55.20;39.66;78.61;;
60503;Laerm;51448;51.660;5.824;2023-03-14T08:25:32;65.76;40.50;89.21;;
60503;Laerm;51448;51.660;5.824;2023-03-14T08:28:00;64.17;41.34;83.99;;
60503;Laerm;51448;51.660;5.824;2023-03-14T08:30:27;56.34;39.96;77.09;;
60503;Laerm;51448;51.660;5.824;2023-03-14T08:32:57;57.27;39.48;83.67;;
60503;Laerm;51448;51.660;5.824;2023-03-14T08:35:26;52.43;41.07;71.15;;
60503;Laerm;51448;51.660;5.824;2023-03-14T08:37:57;52.09;39.21;71.27;;
60503;Laerm;51448;51.660;5.824;2023-03-14T08:40:25;57.71;41.83;76.23;;
60503;Laerm;51448;51.660;5.824;2023-03-14T08:42:52;52.41;40.03;72.58;;
60503;Laerm;51448;51.660;5.824;2023-03-14T08:45:20;56.55;39.94;79.06;;
60503;Laerm;51448;51.660;5.824;2023-03-14T08:47:48;53.46;40.36;72.92;;
60503;Laerm;51448;51.660;5.824;2023-03-14T08:50:15;52.28;39.94;74.13;;
60503;Laerm;51448;51.660;5.824;2023-03-14T08:52:43;52.80;37.56;73.14;;
60503;Laerm;51448;51.660;5.824;2023-03-14T08:55:11;52.38;38.52;71.03;;
60503;Laerm;51448;51.660;5.824;2023-03-14T08:57:38;62.16;38.86;89.13;;
60503;Laerm;51448;51.660;5.824;2023-03-14T09:00:07;52.14;39.08;76.02;;
60503;Laerm;51448;51.660;5.824;2023-03-14T09:02:42;54.93;39.59;80.05;;
60503;Laerm;51448;51.660;5.824;2023-03-14T09:05:11;53.81;39.15;82.66;;
60503;Laerm;51448;51.660;5.824;2023-03-14T09:07:40;51.98;40.78;79.75;;
60503;Laerm;51448;51.660;5.824;2023-03-14T09:10:10;54.55;39.32;75.36;;
60503;Laerm;51448;51.660;5.824;2023-03-14T09:12:38;51.84;39.54;75.40;;
60503;Laerm;51448;51.660;5.824;2023-03-14T09:15:09;48.34;38.47;65.86;;
60503;Laerm;51448;51.660;5.824;2023-03-14T09:17:37;52.08;38.53;78.02;;
60503;Laerm;51448;51.660;5.824;2023-03-14T09:20:05;56.03;42.35;78.28;;
60503;Laerm;51448;51.660;5.824;2023-03-14T09:22:36;61.71;42.53;84.96;;
60503;Laerm;51448;51.660;5.824;2023-03-14T09:25:05;73.42;45.40;95.75;;
60503;Laerm;51448;51.660;5.824;2023-03-14T09:27:33;66.54;41.68;91.03;;
60503;Laerm;51448;51.660;5.824;2023-03-14T09:30:00;68.60;44.02;94.65;;
60503;Laerm;51448;51.660;5.824;2023-03-14T09:32:28;57.64;40.94;82.89;;
60503;Laerm;51448;51.660;5.824;2023-03-14T09:34:57;60.65;40.63;79.66;;
60503;Laerm;51448;51.660;5.824;2023-03-14T09:37:25;59.24;39.95;79.35;;
60503;Laerm;51448;51.660;5.824;2023-03-14T09:39:52;69.02;39.69;95.99;;
60503;Laerm;51448;51.660;5.824;2023-03-14T09:42:25;61.12;42.61;82.54;;
60503;Laerm;51448;51.660;5.824;2023-03-14T09:45:00;57.30;41.84;84.04;;
60503;Laerm;51448;51.660;5.824;2023-03-14T09:47:28;62.67;39.83;85.60;;
60503;Laerm;51448;51.660;5.824;2023-03-14T09:49:56;67.22;41.63;89.20;;
60503;Laerm;51448;51.660;5.824;2023-03-14T09:52:31;69.01;42.81;91.90;;
60503;Laerm;51448;51.660;5.824;2023-03-14T09:55:13;63.75;42.24;94.41;;
60503;Laerm;51448;51.660;5.824;2023-03-14T09:57:45;59.69;41.50;83.84;;
60503;Laerm;51448;51.660;5.824;2023-03-14T10:00:26;59.04;41.54;80.78;;
60503;Laerm;51448;51.660;5.824;2023-03-14T10:02:56;68.83;44.08;93.10;;
60503;Laerm;51448;51.660;5.824;2023-03-14T10:05:26;59.79;44.05;83.94;;
60503;Laerm;51448;51.660;5.824;2023-03-14T10:07:56;62.22;41.72;85.33;;
60503;Laerm;51448;51.660;5.824;2023-03-14T10:10:26;62.77;40.71;84.67;;
60503;Laerm;51448;51.660;5.824;2023-03-14T10:13:21;59.35;40.19;82.83;;
60503;Laerm;51448;51.660;5.824;2023-03-14T10:16:04;60.96;41.53;88.81;;
60503;Laerm;51448;51.660;5.824;2023-03-14T10:18:35;64.74;43.35;87.72;;
60503;Laerm;51448;51.660;5.824;2023-03-14T10:21:06;62.18;42.00;86.92;;
60503;Laerm;51448;51.660;5.824;2023-03-14T10:23:35;62.96;41.88;91.63;;
60503;Laerm;51448;51.660;5.824;2023-03-14T10:26:16;64.63;44.10;88.04;;
60503;Laerm;51448;51.660;5.824;2023-03-14T10:28:48;66.58;42.90;92.62;;
60503;Laerm;51448;51.660;5.824;2023-03-14T10:31:25;61.71;41.13;89.20;;
60503;Laerm;51448;51.660;5.824;2023-03-14T10:34:04;58.02;39.87;80.49;;
60503;Laerm;51448;51.660;5.824;2023-03-14T10:36:33;59.47;42.29;83.04;;
60503;Laerm;51448;51.660;5.824;2023-03-14T10:41:54;66.62;43.89;93.64;;
60503;Laerm;51448;51.660;5.824;2023-03-14T10:44:25;61.07;44.95;84.91;;
60503;Laerm;51448;51.660;5.824;2023-03-14T10:46:59;58.50;42.77;81.50;;
60503;Laerm;51448;51.660;5.824;2023-03-14T10:49:32;62.40;43.21;89.83;;
60503;Laerm;51448;51.660;5.824;2023-03-14T10:52:21;62.41;43.85;83.08;;
60503;Laerm;51448;51.660;5.824;2023-03-14T10:55:17;62.01;41.38;84.38;;
60503;Laerm;51448;51.660;5.824;2023-03-14T10:57:45;58.92;39.56;76.83;;
60503;Laerm;51448;51.660;5.824;2023-03-14T11:00:23;62.61;41.88;83.27;;
60503;Laerm;51448;51.660;5.824;2023-03-14T11:03:14;64.93;40.49;91.76;;
60503;Laerm;51448;51.660;5.824;2023-03-14T11:05:59;67.76;41.99;90.55;;
60503;Laerm;51448;51.660;5.824;2023-03-14T11:08:49;61.23;42.86;88.93;;
60503;Laerm;51448;51.660;5.824;2023-03-14T11:11:29;65.34;43.90;83.79;;
60503;Laerm;51448;51.660;5.824;2023-03-14T11:20:22;62.08;41.23;84.45;;
60503;Laerm;51448;51.660;5.824;2023-03-14T11:23:16;53.76;39.17;73.63;;
60503;Laerm;51448;51.660;5.824;2023-03-14T11:31:48;68.90;45.75;92.91;;
60503;Laerm;51448;51.660;5.824;2023-03-14T11:34:36;67.32;42.51;90.92;;
60503;Laerm;51448;51.660;5.824;2023-03-14T11:37:26;61.43;42.21;85.02;;
60503;Laerm;51448;51.660;5.824;2023-03-14T11:40:21;63.31;41.03;87.11;;
60503;Laerm;51448;51.660;5.824;2023-03-14T11:43:29;57.40;39.50;78.57;;
60503;Laerm;51448;51.660;5.824;2023-03-14T11:46:08;56.88;39.70;80.76;;
60503;Laerm;51448;51.660;5.824;2023-03-14T11:48:53;61.39;40.26;90.16;;
60503;Laerm;51448;51.660;5.824;2023-03-14T11:51:32;62.41;38.98;88.43;;
60503;Laerm;51448;51.660;5.824;2023-03-14T11:56:51;60.38;41.79;82.99;;
60503;Laerm;51448;51.660;5.824;2023-03-14T11:59:50;64.14;41.56;89.88;;
60503;Laerm;51448;51.660;5.824;2023-03-14T12:05:55;60.08;38.66;81.50;;
60503;Laerm;51448;51.660;5.824;2023-03-14T12:08:42;70.15;43.34;92.34;;
60503;Laerm;51448;51.660;5.824;2023-03-14T12:11:46;65.64;39.70;86.54;;
60503;Laerm;51448;51.660;5.824;2023-03-14T12:14:27;59.33;39.39;86.32;;
60503;Laerm;51448;51.660;5.824;2023-03-14T12:17:04;63.59;40.67;88.30;;
60503;Laerm;51448;51.660;5.824;2023-03-14T12:19:36;66.37;40.46;88.06;;
60503;Laerm;51448;51.660;5.824;2023-03-14T12:22:22;61.20;41.00;83.50;;
60503;Laerm;51448;51.660;5.824;2023-03-14T12:28:03;57.26;40.27;85.61;;
60503;Laerm;51448;51.660;5.824;2023-03-14T12:39:40;60.00;41.18;82.83;;
60503;Laerm;51448;51.660;5.824;2023-03-14T12:45:35;60.96;39.66;84.32;;
60503;Laerm;51448;51.660;5.824;2023-03-14T12:48:23;64.05;41.66;85.42;;
60503;Laerm;51448;51.660;5.824;2023-03-14T12:51:02;58.36;38.45;79.57;;
60503;Laerm;51448;51.660;5.824;2023-03-14T12:53:43;58.33;40.78;82.77;;
60503;Laerm;51448;51.660;5.824;2023-03-14T12:56:53;70.32;41.23;92.76;;
60503;Laerm;51448;51.660;5.824;2023-03-14T12:59:31;66.63;40.90;89.52;;
60503;Laerm;51448;51.660;5.824;2023-03-14T13:02:28;64.75;44.09;88.97;;
60503;Laerm;51448;51.660;5.824;2023-03-14T13:05:09;64.46;44.92;88.51;;
60503;Laerm;51448;51.660;5.824;2023-03-14T13:13:20;68.40;44.12;94.11;;
60503;Laerm;51448;51.660;5.824;2023-03-14T13:15:56;68.05;42.66;93.46;;
60503;Laerm;51448;51.660;5.824;2023-03-14T13:18:35;66.59;41.45;92.29;;
60503;Laerm;51448;51.660;5.824;2023-03-14T13:21:12;61.33;40.59;87.21;;
60503;Laerm;51448;51.660;5.824;2023-03-14T13:24:07;63.22;40.87;92.01;;
60503;Laerm;51448;51.660;5.824;2023-03-14T13:26:42;64.20;38.48;89.00;;
60503;Laerm;51448;51.660;5.824;2023-03-14T13:31:47;68.34;42.17;92.53;;
60503;Laerm;51448;51.660;5.824;2023-03-14T13:34:15;64.73;41.64;86.23;;
60503;Laerm;51448;51.660;5.824;2023-03-14T13:36:43;65.52;46.14;87.61;;
60503;Laerm;51448;51.660;5.824;2023-03-14T13:39:20;64.85;40.81;91.69;;
60503;Laerm;51448;51.660;5.824;2023-03-14T13:41:49;64.87;42.44;89.53;;
60503;Laerm;51448;51.660;5.824;2023-03-14T13:44:45;61.02;39.80;87.03;;
60503;Laerm;51448;51.660;5.824;2023-03-14T13:47:20;67.10;41.46;89.72;;
60503;Laerm;51448;51.660;5.824;2023-03-14T13:49:50;70.98;42.36;93.24;;
60503;Laerm;51448;51.660;5.824;2023-03-14T13:52:38;63.78;41.82;86.00;;
60503;Laerm;51448;51.660;5.824;2023-03-14T13:55:16;52.83;40.19;72.77;;
60503;Laerm;51448;51.660;5.824;2023-03-14T13:57:54;55.66;37.58;73.48;;
60503;Laerm;51448;51.660;5.824;2023-03-14T14:00:27;50.72;36.50;73.92;;
60503;Laerm;51448;51.660;5.824;2023-03-14T14:03:00;64.58;38.69;89.46;;
60503;Laerm;51448;51.660;5.824;2023-03-14T14:05:29;64.76;39.73;87.01;;
60503;Laerm;51448;51.660;5.824;2023-03-14T14:07:58;68.28;43.70;87.93;;
60503;Laerm;51448;51.660;5.824;2023-03-14T14:10:28;64.38;38.39;91.02;;
60503;Laerm;51448;51.660;5.824;2023-03-14T14:13:03;57.92;38.49;77.98;;
60503;Laerm;51448;51.660;5.824;2023-03-14T14:15:43;59.14;40.59;82.76;;
60503;Laerm;51448;51.660;5.824;2023-03-14T14:18:18;71.13;44.08;91.13;;
60503;Laerm;51448;51.660;5.824;2023-03-14T14:20:50;70.42;44.18;94.18;;
60503;Laerm;51448;51.660;5.824;2023-03-14T14:23:22;66.32;41.46;90.19;;
60503;Laerm;51448;51.660;5.824;2023-03-14T14:25:57;61.77;41.48;83.32;;
60503;Laerm;51448;51.660;5.824;2023-03-14T14:28:31;62.25;38.89;84.84;;
60503;Laerm;51448;51.660;5.824;2023-03-14T14:31:18;64.60;38.13;89.08;;
60503;Laerm;51448;51.660;5.824;2023-03-14T14:36:28;62.12;41.50;83.78;;
60503;Laerm;51448;51.660;5.824;2023-03-14T14:41:43;65.44;39.46;88.51;;
60503;Laerm;51448;51.660;5.824;2023-03-14T14:44:14;61.37;38.22;82.93;;
60503;Laerm;51448;51.660;5.824;2023-03-14T14:46:44;60.99;38.71;85.09;;
60503;Laerm;51448;51.660;5.824;2023-03-14T14:49:19;55.80;38.12;81.87;;
60503;Laerm;51448;51.660;5.824;2023-03-14T14:51:50;54.03;36.87;74.68;;
60503;Laerm;51448;51.660;5.824;2023-03-14T14:54:54;67.77;38.88;89.50;;
60503;Laerm;51448;51.660;5.824;2023-03-14T14:57:27;55.84;38.47;78.99;;
60503;Laerm;51448;51.660;5.824;2023-03-14T15:00:05;61.18;37.92;88.52;;
60503;Laerm;51448;51.660;5.824;2023-03-14T15:02:40;65.52;41.20;88.96;;
60503;Laerm;51448;51.660;5.824;2023-03-14T15:05:19;57.17;39.64;84.39;;
60503;Laerm;51448;51.660;5.824;2023-03-14T15:07:47;64.56;41.16;89.63;;
60503;Laerm;51448;51.660;5.824;2023-03-14T15:10:19;57.31;43.04;79.66;;
60503;Laerm;51448;51.660;5.824;2023-03-14T15:12:47;66.67;41.90;90.16;;
60503;Laerm;51448;51.660;5.824;2023-03-14T15:15:16;58.28;39.04;82.38;;
60503;Laerm;51448;51.660;5.824;2023-03-14T15:17:45;60.83;39.81;86.58;;
60503;Laerm;51448;51.660;5.824;2023-03-14T15:20:17;51.71;39.14;66.07;;